Friday, October 19, 2018, 11:43 AM EDT
Back to Local

KCEF, Chicopee Falls / Westover Air Force Base

Location: Chicopee, MA, United States Lat: 42.2
Local Time: 11:43 AM EDT (15:43 GMT) Lon: -72.533
Time Zone: US/Eastern Elev: 246 ft

Show me the last for .
Show Decoded

2018-10-19 10:56 METAR KCEF 191456Z 19007KT 10SM FEW200 09/M01 A3018 RMK AO2A SLP228 T00871011
                 58016 =
2018-10-19 09:56 METAR KCEF 191356Z 20005KT 10SM FEW200 06/M01 A3020 RMK AO2A SLP235 T00601012 =
2018-10-19 08:56 METAR KCEF 191256Z 19004KT 10SM FEW200 03/M02 A3023 RMK AO2A SLP245 T00311016 =
2018-10-19 07:56 METAR KCEF 191156Z 00000KT 10SM FEW150 FEW200 M01/M03 A3023 RMK AO2A SLP245
                 T10071034 11005 21020 57006 =
2018-10-19 06:56 METAR KCEF 191056Z 18003KT 10SM FEW050 FEW180 M02/M04 A3023 RMK AO2A SLP245
                 T10181038 =
2018-10-19 05:56 METAR KCEF 190956Z AUTO 00000KT 10SM CLR M01/M04 A3025 RMK AO2 SLP252 T10091038
                 =
2018-10-19 04:56 METAR KCEF 190856Z AUTO 00000KT 10SM CLR M01/M04 A3025 RMK AO2 SLP252 T10121040
                 55002 =
2018-10-19 03:56 METAR KCEF 190756Z AUTO 00000KT 10SM CLR M01/M04 A3026 RMK AO2 SLP255 T10141038
                 =
2018-10-19 02:56 METAR KCEF 190656Z AUTO 00000KT 10SM CLR M02/M04 A3025 RMK AO2 SLP252 T10191039
                 =
2018-10-19 01:56 METAR KCEF 190556Z AUTO 00000KT 10SM CLR M01/M03 A3026 RMK AO2 SLP255 T10071032
                 10044 21008 57012 =
2018-10-19 00:56 METAR KCEF 190456Z AUTO 00000KT 10SM CLR 02/M05 A3027 RMK AO2 SLP258 T00231049
                 400820004 =
2018-10-18 23:56 METAR KCEF 190356Z AUTO 26004KT 10SM CLR 01/M05 A3029 RMK AO2 SLP265 T00091047 =
2018-10-18 22:56 METAR KCEF 190256Z 27007KT 10SM CLR 04/M05 A3029 RMK AO2A SLP265 T00361048 50007
                 =
2018-10-18 21:56 METAR KCEF 190156Z 27004KT 10SM CLR 04/M05 A3030 RMK AO2A SLP269 T00351054 =
2018-10-18 20:56 METAR KCEF 190056Z 29009KT 10SM CLR 04/M07 A3029 RMK AO2A SLP265 T00391070 =
2018-10-18 19:56 METAR KCEF 182356Z 28008KT 10SM CLR 04/M08 A3027 RMK AO2A SLP259 T00431078 10082
                 20043 52013 =
2018-10-18 18:56 METAR KCEF 182256Z 28007KT 10SM CLR 05/M09 A3027 RMK AO2A SLP259 T00461089 =
2018-10-18 17:56 METAR KCEF 182156Z 28010KT 10SM CLR 06/M09 A3025 RMK AO2A SLP252 T00601091 =
2018-10-18 16:56 METAR KCEF 182056Z 30013KT 10SM CLR 07/M10 A3023 RMK AO2A SLP245 T00731100 53001
                 =
2018-10-18 15:56 METAR KCEF 181956Z 30015KT 10SM CLR 08/M10 A3023 RMK AO2A SLP245 T00791100 =
2018-10-18 14:56 METAR KCEF 181856Z 31013KT 10SM FEW050 08/M10 A3023 RMK AO2A SLP245 T00801104 =
2018-10-18 13:56 METAR KCEF 181756Z 30014G22KT 10SM FEW050 08/M10 A3023 RMK AO2A SLP245 T00771097
                 10079 20015 58005 =
2018-10-18 12:56 METAR KCEF 181656Z 32010G17KT 10SM FEW050 07/M09 A3024 RMK AO2A SLP248 T00731091
                 =
2018-10-18 11:56 METAR KCEF 181556Z 32011G17KT 10SM FEW050 06/M10 A3026 RMK AO2A SLP255 T00641099
                 =

Support USWX by starting your Amazon purchase here.